Time;durP1;ratioP1;P1;durP2;ratioP2;P2;SDS_P1;SDS_P2;PMS_P1;PMS_P2;Temp;Humidity;BMP_temperature;BMP_pressure;BME280_temperature;BME280_humidity;BME280_pressure;Samples;Min_cycle;Max_cycle;Signal;HPM_P1;HPM_P2
2022/12/19 00:01:21;;;;;;;20.80;10.60;;;5.80;89.10;;;;;;4989203;28;20042;-70
2022/12/19 00:03:49;;;;;;;12.82;7.40;;;5.80;90.20;;;;;;4994318;28;20461;-70
2022/12/19 00:06:16;;;;;;;12.73;6.28;;;6.20;89.50;;;;;;4991602;28;20503;-70
2022/12/19 00:08:44;;;;;;;9.60;5.20;;;6.50;90.70;;;;;;4988795;28;20517;-70
2022/12/19 00:11:11;;;;;;;8.02;4.15;;;6.80;90.40;;;;;;4988692;28;20030;-70
2022/12/19 00:13:37;;;;;;;5.00;2.97;;;7.00;90.70;;;;;;4987706;28;20030;-70
2022/12/19 00:16:10;;;;;;;10.45;3.40;;;7.40;90.90;;;;;;5002494;28;20077;-70
2022/12/19 00:18:37;;;;;;;5.82;2.90;;;7.40;90.60;;;;;;4988171;28;20027;-70
2022/12/19 00:21:04;;;;;;;9.13;2.83;;;7.70;90.30;;;;;;4985383;28;20038;-70
2022/12/19 00:23:31;;;;;;;6.63;2.50;;;8.00;90.00;;;;;;4988078;28;20034;-70
2022/12/19 00:26:16;;;;;;;5.70;2.53;;;8.00;89.30;;;;;;4986252;28;20034;-70
2022/12/19 00:28:43;;;;;;;5.50;3.00;;;7.70;89.90;;;;;;4990764;28;20427;-70
2022/12/19 00:31:09;;;;;;;5.60;2.90;;;7.80;90.00;;;;;;4979427;28;20031;-70
2022/12/19 00:33:35;;;;;;;6.53;3.27;;;7.80;90.00;;;;;;4988485;28;20026;-70
2022/12/19 00:36:03;;;;;;;4.27;2.53;;;8.00;89.40;;;;;;4986061;28;20023;-70
2022/12/19 00:38:30;;;;;;;5.57;2.78;;;8.00;89.00;;;;;;4990285;28;20113;-70
2022/12/19 00:41:10;;;;;;;12.00;2.55;;;8.10;89.60;;;;;;4987542;28;20030;-70
2022/12/19 00:43:36;;;;;;;12.85;3.05;;;8.10;90.00;;;;;;4990196;28;20085;-70
2022/12/19 00:46:09;;;;;;;5.47;2.30;;;8.50;88.60;;;;;;4993215;28;20589;-70
2022/12/19 00:48:35;;;;;;;5.72;2.13;;;8.80;86.80;;;;;;4990336;28;20049;-70
2022/12/19 00:51:10;;;;;;;;;;;8.90;86.60;;;;;;4992095;28;20037;-70
2022/12/19 00:53:35;;;;;;;4.90;2.25;;;9.30;85.30;;;;;;4989558;28;19909;-70
2022/12/19 00:56:03;;;;;;;5.47;2.40;;;9.00;86.00;;;;;;4987136;28;20525;-70
2022/12/19 00:58:29;;;;;;;4.00;1.70;;;9.20;86.50;;;;;;4989011;28;20301;-71
2022/12/19 01:00:54;;;;;;;4.72;2.50;;;9.00;87.30;;;;;;4990542;28;20031;-70
2022/12/19 01:03:20;;;;;;;4.47;1.70;;;9.20;86.90;;;;;;4989431;28;20042;-70
2022/12/19 01:05:45;;;;;;;7.00;1.97;;;9.50;85.10;;;;;;4989264;28;20022;-71
2022/12/19 01:08:11;;;;;;;4.40;2.30;;;9.50;85.60;;;;;;4988978;28;20149;-70
2022/12/19 01:10:43;;;;;;;5.83;1.80;;;9.30;86.00;;;;;;4991685;28;20248;-71
2022/12/19 01:13:09;;;;;;;2.90;1.52;;;9.50;85.30;;;;;;4987791;28;20490;-70
2022/12/19 01:15:39;;;;;;;3.67;1.70;;;9.60;85.40;;;;;;4986034;28;20026;-70
2022/12/19 01:18:05;;;;;;;4.00;1.60;;;9.60;86.10;;;;;;4989657;28;20030;-71
2022/12/19 01:20:30;;;;;;;3.87;1.67;;;9.80;85.10;;;;;;4986631;28;20561;-70
2022/12/19 01:22:57;;;;;;;4.03;1.87;;;9.50;86.10;;;;;;4979937;28;20034;-70
2022/12/19 01:25:23;;;;;;;6.25;1.70;;;9.60;85.70;;;;;;4985079;28;20038;-70
2022/12/19 01:27:48;;;;;;;4.80;1.70;;;9.60;86.50;;;;;;4991420;28;20093;-70
2022/12/19 01:30:14;;;;;;;8.17;1.93;;;9.70;85.60;;;;;;4990610;28;20030;-70
2022/12/19 01:32:39;;;;;;;4.43;2.03;;;10.10;83.80;;;;;;4991302;28;20031;-71
2022/12/19 01:35:06;;;;;;;3.00;1.60;;;10.20;83.80;;;;;;4995806;28;20038;-71
2022/12/19 01:37:31;;;;;;;4.97;1.65;;;10.40;82.70;;;;;;4991342;28;20462;-71
2022/12/19 01:39:57;;;;;;;6.97;2.03;;;10.20;83.50;;;;;;4992501;28;20042;-70
2022/12/19 01:42:22;;;;;;;5.67;1.80;;;10.10;84.20;;;;;;4995140;28;20030;-70
2022/12/19 01:45:14;;;;;;;8.50;2.30;;;10.10;84.90;;;;;;4992091;28;20061;-70
2022/12/19 01:47:50;;;;;;;3.10;1.48;;;10.00;85.10;;;;;;4991070;28;20042;-70
2022/12/19 01:50:30;;;;;;;5.22;1.30;;;9.90;85.30;;;;;;4990548;28;20033;-70
2022/12/19 01:52:57;;;;;;;5.68;1.80;;;10.10;84.40;;;;;;4991396;28;20039;-70
2022/12/19 01:55:24;;;;;;;2.47;1.50;;;10.00;85.60;;;;;;5000446;28;20054;-70
2022/12/19 01:57:51;;;;;;;5.07;1.83;;;10.10;85.80;;;;;;4995519;28;20105;-70
2022/12/19 02:00:16;;;;;;;6.75;1.60;;;10.30;83.90;;;;;;4993160;28;20031;-70
2022/12/19 02:02:55;;;;;;;3.60;1.53;;;10.10;84.90;;;;;;4992033;28;20026;-70
2022/12/19 02:05:21;;;;;;;5.40;2.47;;;10.20;84.00;;;;;;4991012;28;20026;-70
2022/12/19 02:07:48;;;;;;;5.43;1.70;;;10.10;84.80;;;;;;4988439;28;20032;-70
2022/12/19 02:10:13;;;;;;;4.15;1.80;;;10.10;84.40;;;;;;4991459;28;20031;-70
2022/12/19 02:12:43;;;;;;;4.83;1.97;;;10.10;84.80;;;;;;4990238;28;20050;-70
2022/12/19 02:15:10;;;;;;;5.15;1.95;;;9.90;85.10;;;;;;4991078;28;20041;-70
2022/12/19 02:18:00;;;;;;;5.80;1.90;;;9.70;85.90;;;;;;4989296;28;20584;-70
2022/12/19 02:21:03;;;;;;;4.60;1.75;;;9.70;86.30;;;;;;4994616;28;20073;-70
2022/12/19 02:23:56;;;;;;;2.38;1.65;;;9.80;85.50;;;;;;4986336;28;20506;-70
2022/12/19 02:26:56;;;;;;;4.68;1.77;;;9.60;86.30;;;;;;4986709;28;20046;-70
2022/12/19 02:29:48;;;;;;;1.95;1.50;;;9.70;85.70;;;;;;4987047;28;20031;-70
2022/12/19 02:32:24;;;;;;;3.58;1.90;;;9.70;85.80;;;;;;4987221;28;20025;-70
2022/12/19 02:35:06;;;;;;;2.88;1.70;;;10.00;85.00;;;;;;4992926;28;20022;-70
2022/12/19 02:37:36;;;;;;;6.78;2.45;;;9.80;84.90;;;;;;4982432;28;20525;-70
2022/12/19 02:40:08;;;;;;;3.78;1.55;;;9.50;86.90;;;;;;4990776;28;20058;-70
2022/12/19 02:42:41;;;;;;;3.83;2.00;;;9.60;86.20;;;;;;4990080;28;20035;-70
2022/12/19 02:45:10;;;;;;;3.72;1.52;;;9.40;87.40;;;;;;4989000;28;20426;-70
2022/12/19 02:47:37;;;;;;;2.38;1.58;;;9.30;87.20;;;;;;4989215;28;20062;-70
2022/12/19 02:50:03;;;;;;;4.82;2.05;;;9.20;87.70;;;;;;4989995;28;20536;-70
2022/12/19 02:52:29;;;;;;;3.42;1.83;;;9.20;88.10;;;;;;4992367;28;20031;-70
2022/12/19 02:55:01;;;;;;;3.33;1.70;;;9.30;87.60;;;;;;4991586;28;20098;-70
2022/12/19 02:57:37;;;;;;;5.20;1.92;;;9.60;85.80;;;;;;4992177;28;20019;-70
2022/12/19 03:00:06;;;;;;;3.88;1.80;;;9.60;85.80;;;;;;4989804;28;20034;-70
2022/12/19 03:03:09;;;;;;;4.78;1.75;;;9.40;86.40;;;;;;4992854;28;20446;-70
2022/12/19 03:05:44;;;;;;;5.47;2.03;;;9.60;86.20;;;;;;4993961;28;20501;-70
2022/12/19 03:08:24;;;;;;;3.58;1.60;;;9.40;86.70;;;;;;4990447;28;20030;-70
2022/12/19 03:10:55;;;;;;;11.63;2.20;;;9.40;87.00;;;;;;4993779;28;20029;-70
2022/12/19 03:13:27;;;;;;;19.83;2.55;;;9.80;85.10;;;;;;4986879;28;20030;-70
2022/12/19 03:15:53;;;;;;;6.90;1.73;;;9.80;85.00;;;;;;5004921;28;20046;-70
2022/12/19 03:18:19;;;;;;;8.05;2.10;;;9.60;85.20;;;;;;4989662;28;20026;-70
2022/12/19 03:21:05;;;;;;;4.28;1.58;;;9.40;86.40;;;;;;4992539;28;20030;-70
2022/12/19 03:23:32;;;;;;;4.25;1.90;;;9.60;85.80;;;;;;4989355;28;20035;-70
2022/12/19 03:26:03;;;;;;;;;;;10.00;84.00;;;;;;4993087;28;20024;-70
2022/12/19 03:28:57;;;;;;;7.38;1.88;;;10.00;84.20;;;;;;4991142;28;20356;-70
2022/12/19 03:31:26;;;;;;;6.82;1.70;;;10.00;83.80;;;;;;4990925;28;20027;-70
2022/12/19 03:34:25;;;;;;;3.60;1.35;;;10.20;83.20;;;;;;4992540;28;20748;-70
2022/12/19 03:36:58;;;;;;;6.13;1.80;;;9.80;84.90;;;;;;4997204;28;20387;-70
2022/12/19 03:39:25;;;;;;;6.95;3.25;;;9.90;84.30;;;;;;4992873;28;20591;-70
2022/12/19 03:44:40;;;;;;;6.80;1.83;;;9.70;84.60;;;;;;4992707;28;20084;-70
2022/12/19 03:47:32;;;;;;;6.00;1.60;;;9.80;83.90;;;;;;4989570;28;20061;-70
2022/12/19 03:49:58;;;;;;;2.88;1.38;;;9.90;83.60;;;;;;4986268;28;20441;-70
2022/12/19 03:52:23;;;;;;;3.03;1.30;;;9.70;84.40;;;;;;4987643;28;20030;-70
2022/12/19 03:55:14;;;;;;;7.27;1.53;;;10.20;83.30;;;;;;4991359;28;20029;-70
2022/12/19 03:57:58;;;;;;;2.78;1.90;;;10.10;82.90;;;;;;4992782;28;20039;-70
2022/12/19 04:00:24;;;;;;;5.93;1.63;;;9.90;83.60;;;;;;4991456;28;20026;-71
2022/12/19 04:02:51;;;;;;;;;;;10.00;83.90;;;;;;4990178;28;20522;-71
2022/12/19 04:05:23;;;;;;;2.13;1.33;;;10.10;83.20;;;;;;4994445;28;19913;-70
2022/12/19 04:07:52;;;;;;;2.53;1.50;;;10.00;83.30;;;;;;4990483;28;20022;-70
2022/12/19 04:10:21;;;;;;;5.07;1.17;;;10.10;83.60;;;;;;4985752;28;20019;-70
2022/12/19 04:12:54;;;;;;;2.50;1.50;;;10.00;83.50;;;;;;4990449;28;20029;-70
2022/12/19 04:15:29;;;;;;;9.77;2.08;;;9.90;84.30;;;;;;4989574;28;20023;-70
2022/12/19 04:17:57;;;;;;;3.60;1.42;;;9.80;85.00;;;;;;4989883;28;20018;-70
2022/12/19 04:20:27;;;;;;;4.88;1.60;;;9.70;85.30;;;;;;4988021;28;20483;-70
2022/12/19 04:23:01;;;;;;;6.15;1.20;;;10.00;84.40;;;;;;4994184;28;20756;-70
2022/12/19 04:25:34;;;;;;;2.45;0.90;;;10.00;84.00;;;;;;4993713;28;20026;-70
2022/12/19 04:28:23;;;;;;;4.07;1.40;;;10.10;85.00;;;;;;4991491;28;20022;-70
2022/12/19 04:30:48;;;;;;;8.32;1.40;;;10.50;82.80;;;;;;4988156;28;20014;-70
2022/12/19 04:33:14;;;;;;;2.33;1.05;;;10.20;83.80;;;;;;4982269;28;20029;-70
2022/12/19 04:35:40;;;;;;;2.42;1.27;;;10.10;84.50;;;;;;4988921;28;20027;-70
2022/12/19 04:38:06;;;;;;;1.90;0.95;;;10.30;84.40;;;;;;4988506;28;20042;-70
2022/12/19 04:40:33;;;;;;;1.73;1.10;;;10.50;83.10;;;;;;4991903;28;20033;-70
2022/12/19 04:42:59;;;;;;;5.07;1.10;;;10.50;83.50;;;;;;4981380;28;20034;-70
2022/12/19 04:45:24;;;;;;;2.60;1.20;;;10.60;82.90;;;;;;4988435;28;20590;-70
2022/12/19 04:47:50;;;;;;;5.20;0.88;;;10.60;82.70;;;;;;4985134;28;20096;-70
2022/12/19 04:50:16;;;;;;;2.97;1.37;;;10.50;83.10;;;;;;4987152;28;20525;-70
2022/12/19 04:52:41;;;;;;;4.17;1.13;;;10.70;82.30;;;;;;4989475;28;20399;-70
2022/12/19 04:55:08;;;;;;;3.43;1.20;;;10.50;82.80;;;;;;4988350;28;20023;-70
2022/12/19 04:57:33;;;;;;;5.80;1.35;;;10.80;82.00;;;;;;4982980;28;20165;-70
2022/12/19 04:59:59;;;;;;;4.10;1.17;;;10.60;83.20;;;;;;4988558;28;20558;-70
2022/12/19 05:02:24;;;;;;;5.23;1.40;;;10.80;82.20;;;;;;4996386;28;20117;-70
2022/12/19 05:04:50;;;;;;;1.43;0.90;;;10.60;82.10;;;;;;4989943;28;20061;-70
2022/12/19 05:07:16;;;;;;;4.10;1.37;;;10.60;82.10;;;;;;4989431;28;20031;-70
2022/12/19 05:09:42;;;;;;;4.23;1.63;;;10.80;81.00;;;;;;4991160;28;20030;-70
2022/12/19 05:12:09;;;;;;;4.10;1.40;;;10.40;82.20;;;;;;4993926;28;20026;-70
2022/12/19 05:14:35;;;;;;;3.22;1.23;;;10.30;82.90;;;;;;5000358;28;20284;-70
2022/12/19 05:17:00;;;;;;;7.63;1.88;;;10.30;82.60;;;;;;4991725;28;20113;-70
2022/12/19 05:19:26;;;;;;;2.40;1.63;;;10.40;82.50;;;;;;4991360;28;20127;-70
2022/12/19 05:21:51;;;;;;;4.33;1.70;;;10.20;82.90;;;;;;4992846;28;20026;-70
2022/12/19 05:24:17;;;;;;;5.43;1.57;;;10.10;83.30;;;;;;4990086;28;20038;-70
2022/12/19 05:26:43;;;;;;;2.90;1.60;;;10.20;83.00;;;;;;4995974;28;20414;-70
2022/12/19 05:29:08;;;;;;;5.87;1.80;;;10.20;83.00;;;;;;4991656;28;20038;-70
2022/12/19 05:31:34;;;;;;;2.15;1.27;;;10.00;83.60;;;;;;4991633;28;20034;-70
2022/12/19 05:33:59;;;;;;;2.30;1.53;;;10.10;83.10;;;;;;4991093;28;20045;-70
2022/12/19 05:36:25;;;;;;;5.13;1.60;;;10.00;83.30;;;;;;4991414;28;20482;-70
2022/12/19 05:38:51;;;;;;;3.27;1.30;;;9.80;84.00;;;;;;4990118;28;20029;-70
2022/12/19 05:41:19;;;;;;;2.83;1.63;;;9.70;84.80;;;;;;4992050;28;20030;-70
2022/12/19 05:43:48;;;;;;;1.92;1.20;;;9.80;84.40;;;;;;4990314;28;20066;-70
2022/12/19 05:46:14;;;;;;;3.83;1.88;;;9.80;84.60;;;;;;4992053;28;20022;-70
2022/12/19 05:48:40;;;;;;;9.73;2.30;;;10.00;83.70;;;;;;4990240;28;20041;-70
2022/12/19 05:51:06;;;;;;;5.43;1.60;;;9.80;84.00;;;;;;4992498;28;20054;-70
2022/12/19 05:53:34;;;;;;;4.72;1.30;;;10.20;82.80;;;;;;4994216;28;20019;-70
2022/12/19 05:56:07;;;;;;;6.07;1.90;;;10.40;82.50;;;;;;4992112;28;20021;-70
2022/12/19 05:58:33;;;;;;;4.00;1.73;;;10.00;82.70;;;;;;4992840;28;20046;-70
2022/12/19 06:01:11;;;;;;;3.47;1.58;;;10.10;82.60;;;;;;4991800;28;20026;-70
2022/12/19 06:03:36;;;;;;;3.65;1.98;;;10.00;83.00;;;;;;4998826;28;20045;-70
2022/12/19 06:06:11;;;;;;;3.17;2.10;;;9.90;83.40;;;;;;4989746;28;20158;-70
2022/12/19 06:08:37;;;;;;;3.35;2.00;;;9.60;84.60;;;;;;4992563;28;20057;-70
2022/12/19 06:11:04;;;;;;;4.07;2.13;;;9.40;85.70;;;;;;4991332;28;20466;-70
2022/12/19 06:13:31;;;;;;;4.05;2.00;;;9.30;85.80;;;;;;4994224;28;20042;-70
2022/12/19 06:16:00;;;;;;;4.63;2.33;;;9.30;85.50;;;;;;4989736;28;20505;-69
2022/12/19 06:18:27;;;;;;;5.85;2.65;;;9.40;85.40;;;;;;4990554;28;20053;-70
2022/12/19 06:21:04;;;;;;;6.57;2.33;;;9.20;85.80;;;;;;4983929;28;20172;-69
2022/12/19 06:23:32;;;;;;;8.73;3.15;;;9.10;86.50;;;;;;4993101;28;20093;-69
2022/12/19 06:25:58;;;;;;;10.77;3.72;;;8.90;86.90;;;;;;4991864;28;20495;-69
2022/12/19 06:28:26;;;;;;;6.45;3.30;;;8.80;87.20;;;;;;4989926;28;20490;-69
2022/12/19 06:30:54;;;;;;;7.20;3.05;;;8.70;87.30;;;;;;4987902;28;20493;-69
2022/12/19 06:33:20;;;;;;;3.92;1.98;;;8.70;87.90;;;;;;4988600;28;20073;-69
2022/12/19 06:35:45;;;;;;;9.50;3.13;;;8.90;87.80;;;;;;4992745;28;20034;-69
2022/12/19 06:38:11;;;;;;;9.47;3.27;;;8.80;86.90;;;;;;4989074;28;20108;-69
2022/12/19 06:43:26;;;;;;;7.45;3.42;;;8.90;86.00;;;;;;4991852;28;21161;-69
2022/12/19 06:45:51;;;;;;;6.10;4.00;;;9.10;86.20;;;;;;4990302;28;20061;-69
2022/12/19 06:48:17;;;;;;;4.93;2.30;;;8.90;86.50;;;;;;4988318;28;20117;-69
2022/12/19 06:50:43;;;;;;;7.17;3.17;;;9.10;87.10;;;;;;4990909;28;20034;-69
2022/12/19 06:53:08;;;;;;;12.17;3.83;;;9.00;85.90;;;;;;4991419;28;20033;-69
2022/12/19 06:55:37;;;;;;;10.03;4.87;;;8.80;86.30;;;;;;4997740;28;20026;-69
2022/12/19 06:58:03;;;;;;;9.95;5.10;;;8.40;87.10;;;;;;4989921;28;20031;-69
2022/12/19 07:00:29;;;;;;;8.35;4.57;;;8.30;88.20;;;;;;4994061;28;20022;-70
2022/12/19 07:02:57;;;;;;;7.85;4.55;;;8.30;87.60;;;;;;4992464;28;20039;-69
2022/12/19 07:05:23;;;;;;;10.05;4.28;;;8.30;87.30;;;;;;4990092;28;20520;-71
2022/12/19 07:07:49;;;;;;;9.27;4.60;;;8.30;87.20;;;;;;4991498;28;20030;-69
2022/12/19 07:10:15;;;;;;;7.25;3.17;;;8.40;87.40;;;;;;4991628;28;20422;-69
2022/12/19 07:12:40;;;;;;;8.88;3.90;;;8.40;88.20;;;;;;4990459;28;20026;-70
2022/12/19 07:15:06;;;;;;;9.87;3.13;;;8.60;87.70;;;;;;4991333;28;20468;-69
2022/12/19 07:17:32;;;;;;;10.85;3.92;;;8.50;88.30;;;;;;4985906;28;20034;-69
2022/12/19 07:19:58;;;;;;;8.07;4.07;;;8.70;88.50;;;;;;4989179;28;20049;-68
2022/12/19 07:22:26;;;;;;;6.90;3.53;;;8.50;88.40;;;;;;4999701;28;20030;-69
2022/12/19 07:24:54;;;;;;;10.52;3.85;;;8.60;89.20;;;;;;4999456;28;20034;-67
2022/12/19 07:27:21;;;;;;;13.60;3.40;;;8.70;88.70;;;;;;4989184;28;20037;-68
2022/12/19 07:29:47;;;;;;;9.13;3.65;;;8.40;89.20;;;;;;4987144;28;20029;-68
2022/12/19 07:32:13;;;;;;;11.53;6.57;;;8.20;89.80;;;;;;4987649;28;20060;-67
2022/12/19 07:34:38;;;;;;;15.80;9.00;;;8.10;89.20;;;;;;4988328;28;20298;-68
2022/12/19 07:37:04;;;;;;;20.60;10.30;;;7.80;88.10;;;;;;4986120;28;20030;-68
2022/12/19 07:39:29;;;;;;;23.67;10.90;;;7.60;87.40;;;;;;4986151;28;20543;-68
2022/12/19 07:41:55;;;;;;;27.07;12.30;;;7.40;87.10;;;;;;4991521;28;20033;-68
2022/12/19 07:44:20;;;;;;;25.50;11.60;;;7.30;87.30;;;;;;4993161;28;20047;-68
2022/12/19 07:46:46;;;;;;;22.17;12.40;;;7.30;86.70;;;;;;4991472;28;20751;-68
2022/12/19 07:49:12;;;;;;;30.92;13.82;;;7.20;87.40;;;;;;4990793;28;20030;-68
2022/12/19 07:51:38;;;;;;;28.93;13.60;;;7.20;87.30;;;;;;4993844;28;20023;-68
2022/12/19 07:54:03;;;;;;;31.17;15.17;;;7.10;88.10;;;;;;4988810;28;20277;-67
2022/12/19 07:56:29;;;;;;;33.42;14.85;;;7.10;87.80;;;;;;4987002;28;20970;-68
2022/12/19 07:58:55;;;;;;;24.10;13.47;;;7.00;88.30;;;;;;4991065;28;20041;-67
2022/12/19 08:01:20;;;;;;;25.53;13.07;;;7.20;87.90;;;;;;4992491;28;20040;-68
2022/12/19 08:03:46;;;;;;;25.73;12.87;;;7.10;87.40;;;;;;4995516;28;20860;-68
2022/12/19 08:06:12;;;;;;;24.95;12.18;;;7.10;87.00;;;;;;4985806;28;20117;-68
2022/12/19 08:08:37;;;;;;;28.20;13.37;;;7.00;87.90;;;;;;4989736;28;20073;-69
2022/12/19 08:11:12;;;;;;;31.20;13.90;;;6.90;87.20;;;;;;4991179;28;20092;-70
2022/12/19 08:13:38;;;;;;;28.08;13.82;;;6.90;88.10;;;;;;4988594;28;20123;-69
2022/12/19 08:16:04;;;;;;;26.77;13.65;;;7.00;88.00;;;;;;4989431;28;20027;-69
2022/12/19 08:18:30;;;;;;;31.27;14.88;;;7.10;87.60;;;;;;4985967;28;20066;-69
2022/12/19 08:20:56;;;;;;;24.95;13.55;;;7.10;88.00;;;;;;4984884;28;20121;-68
2022/12/19 08:23:22;;;;;;;35.10;14.10;;;7.10;87.90;;;;;;4987990;28;20049;-68
2022/12/19 08:25:48;;;;;;;28.42;12.75;;;7.20;87.80;;;;;;4990465;28;20037;-69
2022/12/19 08:28:13;;;;;;;24.48;12.38;;;7.20;88.60;;;;;;4987201;28;20041;-69
2022/12/19 08:30:39;;;;;;;28.33;11.73;;;7.20;88.10;;;;;;4985522;28;20026;-69
2022/12/19 08:33:05;;;;;;;37.03;15.93;;;7.30;87.80;;;;;;4984939;28;20035;-69
2022/12/19 08:35:31;;;;;;;29.65;16.33;;;7.30;88.50;;;;;;4995364;28;20692;-69
2022/12/19 08:37:57;;;;;;;38.90;16.90;;;7.30;88.60;;;;;;4986166;28;20042;-68
2022/12/19 08:40:23;;;;;;;33.57;16.10;;;7.40;88.90;;;;;;4987457;28;20387;-69
2022/12/19 08:42:49;;;;;;;41.42;18.10;;;7.40;88.40;;;;;;4987926;28;20030;-69
2022/12/19 08:45:18;;;;;;;35.53;17.23;;;7.40;88.80;;;;;;4987081;28;20031;-70
2022/12/19 08:47:44;;;;;;;29.63;14.68;;;7.50;88.40;;;;;;4987109;28;20026;-69
2022/12/19 08:50:10;;;;;;;30.38;15.27;;;7.50;89.20;;;;;;4984888;28;20039;-71
2022/12/19 08:52:36;;;;;;;29.27;15.70;;;7.70;89.10;;;;;;4989454;28;20117;-70
2022/12/19 08:55:03;;;;;;;30.13;13.10;;;7.90;88.10;;;;;;4988395;28;20106;-70
2022/12/19 08:57:29;;;;;;;33.40;13.05;;;7.90;88.80;;;;;;4988103;28;20546;-71
2022/12/19 08:59:54;;;;;;;27.57;11.90;;;8.10;89.10;;;;;;4981623;28;20049;-70
2022/12/19 09:02:20;;;;;;;39.87;14.17;;;8.20;89.60;;;;;;4983730;28;20331;-69
2022/12/19 09:04:46;;;;;;;36.47;13.67;;;8.20;88.10;;;;;;4986926;28;20470;-69
2022/12/19 09:07:12;;;;;;;40.17;14.30;;;8.30;86.90;;;;;;4983321;28;20027;-70
2022/12/19 09:09:38;;;;;;;34.95;12.63;;;8.40;88.30;;;;;;4990306;28;20512;-71
2022/12/19 09:12:03;;;;;;;39.07;11.17;;;8.50;88.90;;;;;;4986667;28;20031;-70
2022/12/19 09:14:34;;;;;;;13.57;7.50;;;8.60;90.10;;;;;;4984785;28;20251;-70
2022/12/19 09:17:00;;;;;;;11.13;5.05;;;9.20;90.10;;;;;;4988213;28;21249;-69
2022/12/19 09:19:26;;;;;;;6.67;3.73;;;9.70;88.30;;;;;;4986868;28;20027;-69
2022/12/19 09:21:51;;;;;;;9.85;3.08;;;10.20;85.80;;;;;;4984911;28;20077;-70
2022/12/19 09:24:17;;;;;;;8.97;2.80;;;10.50;85.80;;;;;;4981792;28;20065;-70
2022/12/19 09:26:44;;;;;;;8.93;2.80;;;11.00;83.50;;;;;;4989685;28;20114;-71
2022/12/19 09:29:10;;;;;;;5.43;2.65;;;11.40;81.00;;;;;;4987225;28;20025;-70
2022/12/19 09:31:36;;;;;;;10.73;1.57;;;11.10;82.60;;;;;;4987448;28;20469;-70
2022/12/19 09:34:01;;;;;;;7.63;3.10;;;11.70;79.70;;;;;;4988378;28;20027;-70
2022/12/19 09:36:27;;;;;;;7.97;1.92;;;11.60;80.00;;;;;;4989661;28;20026;-71
2022/12/19 09:38:54;;;;;;;5.90;1.90;;;11.60;81.10;;;;;;4991176;28;20033;-70
2022/12/19 09:41:47;;;;;;;3.08;1.52;;;11.80;80.80;;;;;;4987455;28;20018;-71
2022/12/19 09:44:49;;;;;;;7.93;2.13;;;12.10;79.00;;;;;;4988603;28;20121;-70
2022/12/19 09:47:19;;;;;;;5.38;1.85;;;12.10;78.50;;;;;;4987946;28;20086;-71
2022/12/19 09:49:47;;;;;;;2.80;1.75;;;12.10;78.50;;;;;;4991315;28;20112;-69
2022/12/19 09:52:25;;;;;;;5.72;2.15;;;12.20;78.00;;;;;;4992506;28;20030;-71
2022/12/19 09:55:20;;;;;;;4.95;2.50;;;12.20;77.60;;;;;;4988324;28;20069;-68
2022/12/19 09:58:23;;;;;;;3.22;1.83;;;12.40;78.30;;;;;;4982585;28;20038;-71
2022/12/19 10:00:56;;;;;;;5.75;1.85;;;12.50;77.20;;;;;;4970736;28;20137;-69
2022/12/19 10:03:28;;;;;;;8.23;2.30;;;12.60;76.50;;;;;;4988869;28;20046;-68
2022/12/19 10:05:56;;;;;;;5.93;2.20;;;12.80;75.70;;;;;;4985977;28;20112;-69
2022/12/19 10:08:38;;;;;;;5.80;2.38;;;12.70;76.70;;;;;;4990218;28;20037;-68
2022/12/19 10:11:15;;;;;;;5.32;1.70;;;12.80;75.50;;;;;;4990003;28;20030;-69
2022/12/19 10:13:59;;;;;;;;;;;12.90;75.90;;;;;;4995538;28;20061;-69
2022/12/19 10:16:58;;;;;;;10.40;2.13;;;12.90;77.10;;;;;;4995431;28;19952;-68
2022/12/19 10:19:48;;;;;;;4.28;1.70;;;13.00;74.90;;;;;;4985670;28;20112;-70
2022/12/19 10:22:29;;;;;;;4.20;1.63;;;13.20;74.30;;;;;;4984271;28;20030;-69
2022/12/19 10:25:16;;;;;;;2.15;1.35;;;13.10;74.40;;;;;;4995047;28;20077;-69
2022/12/19 10:27:53;;;;;;;2.97;1.40;;;13.20;73.30;;;;;;4990466;28;20402;-69
2022/12/19 10:30:21;;;;;;;3.35;1.60;;;13.20;73.90;;;;;;4987455;28;20293;-69
2022/12/19 10:33:00;;;;;;;3.63;1.05;;;13.30;75.00;;;;;;4990355;28;20105;-69
2022/12/19 10:35:34;;;;;;;3.47;1.35;;;13.30;75.60;;;;;;4988209;28;20037;-69
2022/12/19 10:38:15;;;;;;;2.25;1.10;;;13.30;75.40;;;;;;4985282;28;20026;-69
2022/12/19 10:40:52;;;;;;;3.72;1.52;;;13.40;74.00;;;;;;4990957;28;20026;-69
2022/12/19 10:43:43;;;;;;;3.95;1.40;;;13.50;74.10;;;;;;4986494;28;20034;-69
2022/12/19 10:46:15;;;;;;;5.95;1.50;;;13.50;74.70;;;;;;4993153;28;20119;-70
2022/12/19 10:48:41;;;;;;;3.05;1.38;;;13.50;74.90;;;;;;5007223;28;20414;-69
2022/12/19 10:51:21;;;;;;;3.03;1.33;;;13.50;73.60;;;;;;4988453;28;20039;-69
2022/12/19 10:53:53;;;;;;;8.20;1.35;;;13.40;74.60;;;;;;4987671;28;20518;-70
2022/12/19 10:56:26;;;;;;;3.75;1.20;;;13.60;73.30;;;;;;4987924;28;20525;-70
2022/12/19 10:58:57;;;;;;;1.58;1.10;;;13.50;74.40;;;;;;4990104;28;20520;-69
2022/12/19 11:01:33;;;;;;;2.60;1.13;;;13.40;75.00;;;;;;4988075;28;20038;-69
2022/12/19 11:04:26;;;;;;;3.00;1.40;;;13.40;75.00;;;;;;4988696;28;20422;-69
2022/12/19 11:07:01;;;;;;;3.58;1.10;;;13.50;74.30;;;;;;4988891;28;20494;-70
2022/12/19 11:09:35;;;;;;;4.75;1.27;;;13.60;73.30;;;;;;4988063;28;20034;-70
2022/12/19 11:12:07;;;;;;;5.13;1.42;;;13.60;74.30;;;;;;4988904;28;20034;-68
2022/12/19 11:14:35;;;;;;;5.60;1.10;;;13.80;73.20;;;;;;4988392;28;20030;-68
2022/12/19 11:17:02;;;;;;;1.52;1.02;;;13.90;72.50;;;;;;4983592;28;20037;-70
2022/12/19 11:19:28;;;;;;;4.78;1.27;;;13.90;72.80;;;;;;4989977;28;20030;-70
2022/12/19 11:21:59;;;;;;;3.40;1.03;;;13.90;73.40;;;;;;4983761;28;20921;-69
2022/12/19 11:24:34;;;;;;;1.95;1.02;;;13.90;72.80;;;;;;4991090;28;20085;-70
2022/12/19 11:26:59;;;;;;;7.00;1.40;;;13.90;72.50;;;;;;4985925;28;20218;-69
2022/12/19 11:29:44;;;;;;;1.43;1.03;;;14.10;72.00;;;;;;4986343;28;20034;-70
2022/12/19 11:32:31;;;;;;;3.50;1.25;;;14.00;73.10;;;;;;4984720;28;20113;-71
2022/12/19 11:35:02;;;;;;;3.75;1.35;;;13.90;73.60;;;;;;4990225;28;20034;-70
2022/12/19 11:37:43;;;;;;;3.05;1.35;;;14.00;73.60;;;;;;4986540;28;20069;-70
2022/12/19 11:40:19;;;;;;;4.20;1.40;;;14.00;73.00;;;;;;4984725;28;20031;-71
2022/12/19 11:42:58;;;;;;;3.20;1.67;;;14.00;72.60;;;;;;4987178;28;20070;-71
2022/12/19 11:45:59;;;;;;;1.70;1.13;;;14.00;73.30;;;;;;4985864;28;20402;-71
2022/12/19 11:48:43;;;;;;;2.88;1.30;;;14.10;73.20;;;;;;4974697;28;20046;-71
2022/12/19 11:51:26;;;;;;;1.95;0.95;;;14.00;73.20;;;;;;4984616;28;20510;-71
2022/12/19 11:54:17;;;;;;;3.78;1.42;;;14.00;73.70;;;;;;4984413;28;20030;-70
2022/12/19 11:56:42;;;;;;;4.05;1.63;;;14.00;74.20;;;;;;5020723;28;20674;-71
2022/12/19 11:59:19;;;;;;;3.33;1.40;;;14.10;75.00;;;;;;4980968;28;20030;-71
2022/12/19 12:02:21;;;;;;;3.55;1.00;;;14.10;73.20;;;;;;4981679;28;20022;-70
2022/12/19 12:05:21;;;;;;;3.10;1.00;;;14.10;73.70;;;;;;4984591;28;20056;-70
2022/12/19 12:07:56;;;;;;;5.32;1.30;;;14.10;74.10;;;;;;4990443;28;20455;-70
2022/12/19 12:10:22;;;;;;;2.20;1.35;;;14.30;74.00;;;;;;4986599;28;20029;-70
2022/12/19 12:13:21;;;;;;;1.90;1.30;;;14.30;73.00;;;;;;4982017;28;20038;-70
2022/12/19 12:16:04;;;;;;;4.68;1.08;;;14.30;74.20;;;;;;4989626;28;20490;-71
2022/12/19 12:18:51;;;;;;;4.60;1.38;;;14.20;73.20;;;;;;4986674;28;20038;-69
2022/12/19 12:21:23;;;;;;;8.27;1.38;;;14.30;72.50;;;;;;4988790;28;20026;-70
2022/12/19 12:23:52;;;;;;;2.28;1.20;;;14.30;73.10;;;;;;5004451;28;20448;-70
2022/12/19 12:26:40;;;;;;;4.75;1.33;;;14.40;73.40;;;;;;4980075;28;20050;-70
2022/12/19 12:29:22;;;;;;;2.10;1.15;;;14.30;73.50;;;;;;4983930;28;20030;-69
2022/12/19 12:31:57;;;;;;;3.00;1.23;;;14.40;72.30;;;;;;4984814;28;20030;-69
2022/12/19 12:34:54;;;;;;;3.75;1.40;;;14.50;72.50;;;;;;4985222;28;20018;-70
2022/12/19 12:37:57;;;;;;;4.23;1.77;;;14.70;72.50;;;;;;4986210;28;20034;-70
2022/12/19 12:41:10;;;;;;;5.88;1.20;;;14.60;72.20;;;;;;4982113;28;20544;-72
2022/12/19 12:43:56;;;;;;;5.18;1.38;;;14.70;72.20;;;;;;4977314;28;20085;-70
2022/12/19 12:46:38;;;;;;;4.78;1.30;;;14.70;72.20;;;;;;4979712;28;20021;-70
2022/12/19 12:49:18;;;;;;;3.58;1.33;;;14.60;72.40;;;;;;4987789;28;20042;-70
2022/12/19 12:51:45;;;;;;;5.00;0.98;;;14.60;72.00;;;;;;4985563;28;20461;-70
2022/12/19 12:54:13;;;;;;;3.30;1.35;;;14.60;72.20;;;;;;4989602;28;20030;-70
2022/12/19 12:56:41;;;;;;;4.25;1.00;;;14.60;72.40;;;;;;4986938;28;20089;-70
2022/12/19 12:59:22;;;;;;;6.35;1.35;;;14.60;72.00;;;;;;4986842;28;20038;-70
2022/12/19 13:01:51;;;;;;;5.63;1.90;;;14.70;72.20;;;;;;4988991;28;20014;-70
2022/12/19 13:04:42;;;;;;;6.60;1.20;;;14.70;72.30;;;;;;4995603;28;20442;-70
2022/12/19 13:07:27;;;;;;;5.05;1.20;;;14.80;72.60;;;;;;4985451;28;20072;-69
2022/12/19 13:10:13;;;;;;;8.18;1.05;;;14.70;73.80;;;;;;4984279;28;20112;-68
2022/12/19 13:12:59;;;;;;;9.40;1.33;;;14.80;72.80;;;;;;4987903;28;20061;-68
2022/12/19 13:15:36;;;;;;;4.93;1.50;;;14.80;72.30;;;;;;4986682;28;20096;-68
2022/12/19 13:18:30;;;;;;;2.38;1.30;;;14.90;71.50;;;;;;4985192;28;20102;-68
2022/12/19 13:20:57;;;;;;;7.47;1.05;;;14.90;71.90;;;;;;4990569;28;20046;-68